Leominster, MA (01453)

11:00 PM EDT on September 28, 2016 (GMT -0400)
| | Change Station

Elev -9999 ft 0.00 °N, 0.00 °E | Updated

Cloudy
Cloudy
54 °F
Feels Like 54 °F
N
8
Wind Variable Wind from NE
Gusts 14 mph

Today
High -- | Low -- °F
--% Chance of Precip.
Yesterday
High -- | Low -- °F
Precip. -- in
Pressure 30.38 in
Visibility 10.0 miles
Clouds Overcast 3500 ft
Dew Point 48 °F
Humidity 81%
Rainfall --
Snow Depth Not available.
6:41 AM 6:32 PM
Waning Crescent, 3% visible
METAR KFIT 290252Z AUTO 36006KT 10SM OVC035 13/09 A3038 RMK AO2 SLP288 6//// T01330089 51017 PNO
Pressure 30.38 in
Visibility 10.0 miles
Clouds Overcast 3500 ft
Dew Point 48 °F
Humidity 81%
Rainfall --
Snow Depth Not available.
6:41 AM 6:32 PM
Waning Crescent, 3% visible
METAR KFIT 290252Z AUTO 36006KT 10SM OVC035 13/09 A3038 RMK AO2 SLP288 6//// T01330089 51017 PNO

10-Day Weather Forecast

Almanac

Astronomy

Sep. 28, 2016 Rise Set
Actual Time
Civil Twilight
Nautical Twilight
Astronomical Twilight
Moon
Length of Visible Light
Length of Day
Tomorrow will be .
, % of the Moon is Illuminated

Today's Extremes

State Highs State Lows

Community

WunderPhotos

Upload Photos

1,942,402 photos uploaded!

WunderBlog® & News

Nearby

Air Quality

  Air Quality AQ Index Pollutant
Not available.

Snow Depth

Station Depth Elevation

Earthquake Activity

City Distance Mag. Time & Date
Minimum magnitude displayed is 2.5.

Coastal Water Temperatures

Place Temperature

Stations

Nearby Weather Stations

Station Location Temp. Windchill Dew Point Humidity Wind Precip. Elev Updated Type
                   

Watches & Warnings

There are currently no watches in effect.